sensor_id;sensor_type;location;lat;lon;timestamp;pressure;altitude;pressure_sealevel;temperature;humidity
6389;BME280;3227;42.654;23.360;2022-09-12T00:01:53;94253.69;;;17.76;87.73
6389;BME280;3227;42.654;23.360;2022-09-12T00:04:20;94251.91;;;17.78;88.45
6389;BME280;3227;42.654;23.360;2022-09-12T00:06:47;94247.63;;;17.77;88.69
6389;BME280;3227;42.654;23.360;2022-09-12T00:09:14;94252.00;;;17.75;87.89
6389;BME280;3227;42.654;23.360;2022-09-12T00:11:43;94258.97;;;17.73;86.85
6389;BME280;3227;42.654;23.360;2022-09-12T00:14:15;94206.59;;;17.35;87.99
6389;BME280;3227;42.654;23.360;2022-09-12T00:16:43;94255.13;;;17.57;88.25
6389;BME280;3227;42.654;23.360;2022-09-12T00:19:10;94218.75;;;17.33;88.20
6389;BME280;3227;42.654;23.360;2022-09-12T00:21:39;94259.41;;;17.58;88.24
6389;BME280;3227;42.654;23.360;2022-09-12T00:24:06;94258.75;;;17.51;88.01
6389;BME280;3227;42.654;23.360;2022-09-12T00:26:34;94232.53;;;17.34;87.88
6389;BME280;3227;42.654;23.360;2022-09-12T00:29:02;94259.41;;;17.30;87.95
6389;BME280;3227;42.654;23.360;2022-09-12T00:31:29;94263.03;;;17.24;88.63
6389;BME280;3227;42.654;23.360;2022-09-12T00:33:58;94232.38;;;17.10;88.38
6389;BME280;3227;42.654;23.360;2022-09-12T00:36:27;94251.97;;;17.19;87.79
6389;BME280;3227;42.654;23.360;2022-09-12T00:38:54;94253.56;;;17.23;88.45
6389;BME280;3227;42.654;23.360;2022-09-12T00:41:23;94255.47;;;17.18;88.69
6389;BME280;3227;42.654;23.360;2022-09-12T00:43:52;94258.09;;;17.17;88.19
6389;BME280;3227;42.654;23.360;2022-09-12T00:46:28;94259.09;;;17.13;88.78
6389;BME280;3227;42.654;23.360;2022-09-12T00:48:59;94260.94;;;17.07;88.68
6389;BME280;3227;42.654;23.360;2022-09-12T00:51:28;94258.28;;;17.10;89.01
6389;BME280;3227;42.654;23.360;2022-09-12T00:53:59;94235.09;;;17.06;88.60
6389;BME280;3227;42.654;23.360;2022-09-12T00:56:28;94247.63;;;17.21;88.25
6389;BME280;3227;42.654;23.360;2022-09-12T00:59:01;94256.13;;;17.25;87.90
6389;BME280;3227;42.654;23.360;2022-09-12T01:01:30;94258.66;;;17.26;87.19
6389;BME280;3227;42.654;23.360;2022-09-12T01:03:57;94247.50;;;17.24;86.20
6389;BME280;3227;42.654;23.360;2022-09-12T01:06:26;94252.69;;;17.24;86.74
6389;BME280;3227;42.654;23.360;2022-09-12T01:08:54;94252.69;;;17.24;86.73
6389;BME280;3227;42.654;23.360;2022-09-12T01:11:23;94238.91;;;17.22;86.54
6389;BME280;3227;42.654;23.360;2022-09-12T01:13:50;94245.09;;;17.18;85.60
6389;BME280;3227;42.654;23.360;2022-09-12T01:16:17;94246.88;;;17.16;86.14
6389;BME280;3227;42.654;23.360;2022-09-12T01:18:53;94240.00;;;17.15;85.41
6389;BME280;3227;42.654;23.360;2022-09-12T01:21:32;94234.16;;;17.08;85.58
6389;BME280;3227;42.654;23.360;2022-09-12T01:24:32;94245.22;;;17.13;85.20
6389;BME280;3227;42.654;23.360;2022-09-12T01:27:26;94236.72;;;17.10;85.87
6389;BME280;3227;42.654;23.360;2022-09-12T01:30:31;94237.59;;;17.09;85.42
6389;BME280;3227;42.654;23.360;2022-09-12T01:33:16;94241.31;;;17.00;84.57
6389;BME280;3227;42.654;23.360;2022-09-12T01:35:55;94241.34;;;16.99;85.06
6389;BME280;3227;42.654;23.360;2022-09-12T01:38:26;94240.47;;;17.00;85.43
6389;BME280;3227;42.654;23.360;2022-09-12T01:41:01;94242.09;;;17.04;85.01
6389;BME280;3227;42.654;23.360;2022-09-12T01:43:34;94235.31;;;16.98;84.43
6389;BME280;3227;42.654;23.360;2022-09-12T01:46:13;94224.34;;;16.90;84.53
6389;BME280;3227;42.654;23.360;2022-09-12T01:48:45;94239.88;;;16.90;84.81
6389;BME280;3227;42.654;23.360;2022-09-12T01:51:17;94236.53;;;16.87;84.82
6389;BME280;3227;42.654;23.360;2022-09-12T01:53:49;94237.50;;;16.83;85.60
6389;BME280;3227;42.654;23.360;2022-09-12T01:56:21;94228.84;;;16.84;85.30
6389;BME280;3227;42.654;23.360;2022-09-12T01:58:54;94231.44;;;16.84;84.70
6389;BME280;3227;42.654;23.360;2022-09-12T02:01:26;94230.53;;;16.86;84.82
6389;BME280;3227;42.654;23.360;2022-09-12T02:03:59;94234.88;;;16.84;84.32
6389;BME280;3227;42.654;23.360;2022-09-12T02:06:32;94228.84;;;16.84;85.01
6389;BME280;3227;42.654;23.360;2022-09-12T02:09:05;94229.84;;;16.80;83.76
6389;BME280;3227;42.654;23.360;2022-09-12T02:11:37;94226.06;;;16.60;84.66
6389;BME280;3227;42.654;23.360;2022-09-12T02:14:09;94230.69;;;16.48;85.67
6389;BME280;3227;42.654;23.360;2022-09-12T02:16:41;94235.81;;;16.51;85.76
6389;BME280;3227;42.654;23.360;2022-09-12T02:19:13;94176.44;;;16.15;86.24
6389;BME280;3227;42.654;23.360;2022-09-12T02:21:45;94230.50;;;16.55;85.77
6389;BME280;3227;42.654;23.360;2022-09-12T02:24:15;94238.03;;;16.64;85.14
6389;BME280;3227;42.654;23.360;2022-09-12T02:26:46;94239.72;;;16.65;84.46
6389;BME280;3227;42.654;23.360;2022-09-12T02:29:15;94242.31;;;16.65;84.86
6389;BME280;3227;42.654;23.360;2022-09-12T02:31:45;94225.19;;;16.61;84.79
6389;BME280;3227;42.654;23.360;2022-09-12T02:34:31;94231.31;;;16.57;84.64
6389;BME280;3227;42.654;23.360;2022-09-12T02:37:05;94231.31;;;16.57;84.13
6389;BME280;3227;42.654;23.360;2022-09-12T02:39:34;94232.16;;;16.58;84.08
6389;BME280;3227;42.654;23.360;2022-09-12T02:42:02;94242.84;;;16.46;83.97
6389;BME280;3227;42.654;23.360;2022-09-12T02:44:30;94241.16;;;16.45;84.25
6389;BME280;3227;42.654;23.360;2022-09-12T02:47:03;94243.78;;;16.43;83.68
6389;BME280;3227;42.654;23.360;2022-09-12T02:49:31;94198.13;;;16.10;83.93
6389;BME280;3227;42.654;23.360;2022-09-12T02:51:58;94213.88;;;16.33;84.68
6389;BME280;3227;42.654;23.360;2022-09-12T02:54:27;94236.69;;;16.50;83.68
6389;BME280;3227;42.654;23.360;2022-09-12T02:56:54;94240.13;;;16.50;83.50
6389;BME280;3227;42.654;23.360;2022-09-12T02:59:22;94245.38;;;16.47;83.67
6389;BME280;3227;42.654;23.360;2022-09-12T03:02:04;94254.91;;;16.47;83.61
6389;BME280;3227;42.654;23.360;2022-09-12T03:08:09;94259.13;;;16.49;83.75
6389;BME280;3227;42.654;23.360;2022-09-12T03:10:44;94266.84;;;16.51;83.08
6389;BME280;3227;42.654;23.360;2022-09-12T03:13:20;94261.63;;;16.52;82.90
6389;BME280;3227;42.654;23.360;2022-09-12T03:15:55;94201.38;;;16.18;82.26
6389;BME280;3227;42.654;23.360;2022-09-12T03:18:33;94240.78;;;16.26;82.76
6389;BME280;3227;42.654;23.360;2022-09-12T03:21:11;94253.53;;;16.32;82.66
6389;BME280;3227;42.654;23.360;2022-09-12T03:23:43;94257.81;;;16.33;83.58
6389;BME280;3227;42.654;23.360;2022-09-12T03:26:18;94251.94;;;16.28;84.04
6389;BME280;3227;42.654;23.360;2022-09-12T03:28:47;94252.78;;;16.28;84.19
6389;BME280;3227;42.654;23.360;2022-09-12T03:31:17;94250.16;;;16.30;84.37
6389;BME280;3227;42.654;23.360;2022-09-12T03:33:46;94254.53;;;16.28;84.22
6389;BME280;3227;42.654;23.360;2022-09-12T03:36:15;94251.28;;;16.20;84.19
6389;BME280;3227;42.654;23.360;2022-09-12T03:38:42;94255.00;;;16.10;84.70
6389;BME280;3227;42.654;23.360;2022-09-12T03:41:09;94248.06;;;16.12;84.98
6389;BME280;3227;42.654;23.360;2022-09-12T03:43:36;94253.97;;;16.15;84.93
6389;BME280;3227;42.654;23.360;2022-09-12T03:46:02;94247.06;;;16.16;85.09
6389;BME280;3227;42.654;23.360;2022-09-12T03:48:29;94249.59;;;16.19;84.94
6389;BME280;3227;42.654;23.360;2022-09-12T03:51:00;94241.03;;;16.17;84.76
6389;BME280;3227;42.654;23.360;2022-09-12T03:53:28;94252.03;;;16.23;85.25
6389;BME280;3227;42.654;23.360;2022-09-12T03:55:55;94252.00;;;16.25;84.58
6389;BME280;3227;42.654;23.360;2022-09-12T03:58:22;94254.63;;;16.23;84.19
6389;BME280;3227;42.654;23.360;2022-09-12T04:00:49;94245.22;;;16.22;84.78
6389;BME280;3227;42.654;23.360;2022-09-12T04:03:16;94261.47;;;16.26;84.56
6389;BME280;3227;42.654;23.360;2022-09-12T04:05:44;94169.72;;;15.77;84.27
6389;BME280;3227;42.654;23.360;2022-09-12T04:08:13;94256.09;;;16.33;84.39
6389;BME280;3227;42.654;23.360;2022-09-12T04:10:40;94257.84;;;16.31;83.61
6389;BME280;3227;42.654;23.360;2022-09-12T04:13:07;94254.50;;;16.29;83.79
6389;BME280;3227;42.654;23.360;2022-09-12T04:15:34;94261.16;;;16.38;83.73
6389;BME280;3227;42.654;23.360;2022-09-12T04:18:01;94254.97;;;16.44;83.44
6389;BME280;3227;42.654;23.360;2022-09-12T04:20:27;94253.66;;;16.60;82.35
6389;BME280;3227;42.654;23.360;2022-09-12T04:22:54;94258.78;;;16.63;81.28
6389;BME280;3227;42.654;23.360;2022-09-12T04:25:22;94248.72;;;16.51;81.33
6389;BME280;3227;42.654;23.360;2022-09-12T04:27:49;94273.31;;;16.67;82.11
6389;BME280;3227;42.654;23.360;2022-09-12T04:30:16;94272.56;;;16.94;81.50
6389;BME280;3227;42.654;23.360;2022-09-12T04:32:43;94273.81;;;17.38;79.24
6389;BME280;3227;42.654;23.360;2022-09-12T04:35:25;94231.34;;;17.72;76.64
6389;BME280;3227;42.654;23.360;2022-09-12T04:37:52;94287.53;;;18.49;73.63
6389;BME280;3227;42.654;23.360;2022-09-12T04:40:19;94291.13;;;18.94;71.75
6389;BME280;3227;42.654;23.360;2022-09-12T04:42:47;94255.81;;;19.14;69.72
6389;BME280;3227;42.654;23.360;2022-09-12T04:45:14;94275.25;;;19.50;67.83
6389;BME280;3227;42.654;23.360;2022-09-12T04:47:41;94282.91;;;19.53;66.81
6389;BME280;3227;42.654;23.360;2022-09-12T04:50:08;94276.69;;;19.57;66.68
6389;BME280;3227;42.654;23.360;2022-09-12T04:52:35;94287.75;;;19.62;66.52
6389;BME280;3227;42.654;23.360;2022-09-12T04:55:01;94294.19;;;19.75;65.87
6389;BME280;3227;42.654;23.360;2022-09-12T04:57:28;94287.88;;;19.81;65.77
6389;BME280;3227;42.654;23.360;2022-09-12T04:59:56;94292.16;;;20.04;64.99
6389;BME280;3227;42.654;23.360;2022-09-12T05:02:23;94293.28;;;20.19;64.28
6389;BME280;3227;42.654;23.360;2022-09-12T05:04:50;94264.69;;;20.19;64.09
6389;BME280;3227;42.654;23.360;2022-09-12T05:07:18;94283.41;;;20.48;63.04
6389;BME280;3227;42.654;23.360;2022-09-12T05:09:45;94287.69;;;20.70;62.41
6389;BME280;3227;42.654;23.360;2022-09-12T05:12:12;94289.19;;;20.96;61.67
6389;BME280;3227;42.654;23.360;2022-09-12T05:14:39;94292.59;;;21.16;61.29
6389;BME280;3227;42.654;23.360;2022-09-12T05:17:07;94286.94;;;21.27;59.75
6389;BME280;3227;42.654;23.360;2022-09-12T05:19:33;94298.84;;;21.33;60.14
6389;BME280;3227;42.654;23.360;2022-09-12T05:22:01;94298.28;;;21.45;60.13
6389;BME280;3227;42.654;23.360;2022-09-12T05:24:29;94297.44;;;21.63;58.03
6389;BME280;3227;42.654;23.360;2022-09-12T05:26:57;94286.41;;;21.75;57.94
6389;BME280;3227;42.654;23.360;2022-09-12T05:29:24;94291.91;;;21.88;56.84
6389;BME280;3227;42.654;23.360;2022-09-12T05:31:51;94236.22;;;21.53;56.32
6389;BME280;3227;42.654;23.360;2022-09-12T05:34:20;94268.97;;;21.58;59.01
6389;BME280;3227;42.654;23.360;2022-09-12T05:36:47;94289.50;;;21.83;57.20
6389;BME280;3227;42.654;23.360;2022-09-12T05:39:14;94294.31;;;22.11;58.08
6389;BME280;3227;42.654;23.360;2022-09-12T05:41:41;94298.13;;;22.40;56.02
6389;BME280;3227;42.654;23.360;2022-09-12T05:44:10;94266.00;;;22.38;55.71
6389;BME280;3227;42.654;23.360;2022-09-12T05:46:40;94297.19;;;22.75;55.11
6389;BME280;3227;42.654;23.360;2022-09-12T05:49:08;94292.28;;;22.87;55.08
6389;BME280;3227;42.654;23.360;2022-09-12T05:51:39;94250.31;;;22.72;53.47
6389;BME280;3227;42.654;23.360;2022-09-12T05:54:08;94287.72;;;22.90;52.71
6389;BME280;3227;42.654;23.360;2022-09-12T05:56:38;94284.00;;;22.79;53.41
6389;BME280;3227;42.654;23.360;2022-09-12T05:59:06;94281.84;;;22.87;53.37
6389;BME280;3227;42.654;23.360;2022-09-12T06:01:34;94274.84;;;22.87;53.15
6389;BME280;3227;42.654;23.360;2022-09-12T06:04:04;94278.06;;;22.92;52.62
6389;BME280;3227;42.654;23.360;2022-09-12T06:06:34;94277.44;;;23.04;53.02
6389;BME280;3227;42.654;23.360;2022-09-12T06:09:04;94273.22;;;23.18;51.55
6389;BME280;3227;42.654;23.360;2022-09-12T06:11:33;94271.97;;;23.25;51.78
6389;BME280;3227;42.654;23.360;2022-09-12T06:14:00;94271.25;;;23.38;51.10
6389;BME280;3227;42.654;23.360;2022-09-12T06:16:29;94272.41;;;23.33;50.72
6389;BME280;3227;42.654;23.360;2022-09-12T06:18:57;94259.09;;;23.37;52.30
6389;BME280;3227;42.654;23.360;2022-09-12T06:21:25;94248.53;;;23.23;51.54
6389;BME280;3227;42.654;23.360;2022-09-12T06:23:52;94268.28;;;23.29;52.08
6389;BME280;3227;42.654;23.360;2022-09-12T06:26:21;94272.06;;;23.23;50.39
6389;BME280;3227;42.654;23.360;2022-09-12T06:28:51;94283.97;;;22.96;51.63
6389;BME280;3227;42.654;23.360;2022-09-12T06:31:19;94277.94;;;22.78;51.38
6389;BME280;3227;42.654;23.360;2022-09-12T06:33:48;94231.69;;;22.11;53.21
6389;BME280;3227;42.654;23.360;2022-09-12T06:36:17;94262.28;;;22.08;54.32
6389;BME280;3227;42.654;23.360;2022-09-12T06:38:44;94262.75;;;21.98;54.79
6389;BME280;3227;42.654;23.360;2022-09-12T06:41:12;94236.00;;;21.57;54.98
6389;BME280;3227;42.654;23.360;2022-09-12T06:43:40;94289.31;;;21.88;55.59
6389;BME280;3227;42.654;23.360;2022-09-12T06:46:08;94288.59;;;21.84;55.54
6389;BME280;3227;42.654;23.360;2022-09-12T06:48:35;94293.97;;;21.81;56.11
6389;BME280;3227;42.654;23.360;2022-09-12T06:51:04;94300.28;;;21.94;56.79
6389;BME280;3227;42.654;23.360;2022-09-12T06:53:32;94298.19;;;22.02;56.63
6389;BME280;3227;42.654;23.360;2022-09-12T06:56:03;94303.97;;;21.90;56.64
6389;BME280;3227;42.654;23.360;2022-09-12T06:58:32;94299.88;;;21.66;57.42
6389;BME280;3227;42.654;23.360;2022-09-12T07:01:04;94295.63;;;21.46;58.19
6389;BME280;3227;42.654;23.360;2022-09-12T07:03:32;94303.72;;;21.40;58.73
6389;BME280;3227;42.654;23.360;2022-09-12T07:06:06;94308.50;;;21.31;59.08
6389;BME280;3227;42.654;23.360;2022-09-12T07:08:33;94308.59;;;21.48;58.95
6389;BME280;3227;42.654;23.360;2022-09-12T07:11:08;94300.59;;;21.51;58.76
6389;BME280;3227;42.654;23.360;2022-09-12T07:13:35;94319.53;;;21.92;57.50
6389;BME280;3227;42.654;23.360;2022-09-12T07:16:04;94321.81;;;21.99;56.55
6389;BME280;3227;42.654;23.360;2022-09-12T07:18:31;94320.47;;;22.10;56.50
6389;BME280;3227;42.654;23.360;2022-09-12T07:20:59;94321.41;;;22.26;56.97
6389;BME280;3227;42.654;23.360;2022-09-12T07:23:26;94327.56;;;22.25;56.33
6389;BME280;3227;42.654;23.360;2022-09-12T07:25:53;94247.66;;;21.86;56.63
6389;BME280;3227;42.654;23.360;2022-09-12T07:28:21;94319.34;;;22.32;55.61
6389;BME280;3227;42.654;23.360;2022-09-12T07:30:49;94311.94;;;22.06;54.68
6389;BME280;3227;42.654;23.360;2022-09-12T07:33:20;94314.41;;;21.90;55.28
6389;BME280;3227;42.654;23.360;2022-09-12T07:35:47;94308.50;;;21.68;54.82
6389;BME280;3227;42.654;23.360;2022-09-12T07:38:13;94316.97;;;21.73;55.31
6389;BME280;3227;42.654;23.360;2022-09-12T07:40:40;94313.03;;;21.64;55.85
6389;BME280;3227;42.654;23.360;2022-09-12T07:43:07;94305.53;;;21.76;54.85
6389;BME280;3227;42.654;23.360;2022-09-12T07:45:34;94296.16;;;21.72;55.10
6389;BME280;3227;42.654;23.360;2022-09-12T07:48:02;94311.66;;;21.75;54.71
6389;BME280;3227;42.654;23.360;2022-09-12T07:50:30;94312.38;;;21.78;54.10
6389;BME280;3227;42.654;23.360;2022-09-12T07:52:57;94320.81;;;21.83;54.31
6389;BME280;3227;42.654;23.360;2022-09-12T07:55:25;94317.47;;;21.81;53.44
6389;BME280;3227;42.654;23.360;2022-09-12T07:57:51;94315.88;;;21.77;54.03
6389;BME280;3227;42.654;23.360;2022-09-12T08:00:18;94311.22;;;21.84;54.26
6389;BME280;3227;42.654;23.360;2022-09-12T08:02:49;94323.38;;;22.04;53.89
6389;BME280;3227;42.654;23.360;2022-09-12T08:05:16;94318.63;;;21.93;51.87
6389;BME280;3227;42.654;23.360;2022-09-12T08:07:44;94323.34;;;21.85;52.08
6389;BME280;3227;42.654;23.360;2022-09-12T08:10:11;94310.38;;;21.83;52.12
6389;BME280;3227;42.654;23.360;2022-09-12T08:12:38;94320.31;;;21.75;52.06
6389;BME280;3227;42.654;23.360;2022-09-12T08:15:05;94314.44;;;21.72;53.08
6389;BME280;3227;42.654;23.360;2022-09-12T08:17:32;94321.19;;;21.57;52.54
6389;BME280;3227;42.654;23.360;2022-09-12T08:20:00;94311.31;;;21.45;53.63
6389;BME280;3227;42.654;23.360;2022-09-12T08:22:29;94255.75;;;21.05;54.11
6389;BME280;3227;42.654;23.360;2022-09-12T08:25:03;94314.06;;;21.42;54.33
6389;BME280;3227;42.654;23.360;2022-09-12T08:27:29;94319.25;;;21.42;55.16
6389;BME280;3227;42.654;23.360;2022-09-12T08:29:56;94312.63;;;21.35;54.64
6389;BME280;3227;42.654;23.360;2022-09-12T08:32:23;94318.91;;;21.31;54.88
6389;BME280;3227;42.654;23.360;2022-09-12T08:34:50;94316.25;;;21.51;54.90
6389;BME280;3227;42.654;23.360;2022-09-12T08:37:17;94312.44;;;21.58;53.98
6389;BME280;3227;42.654;23.360;2022-09-12T08:39:44;94313.22;;;21.60;54.68
6389;BME280;3227;42.654;23.360;2022-09-12T08:42:19;94302.28;;;21.52;54.22
6389;BME280;3227;42.654;23.360;2022-09-12T08:45:08;94318.44;;;21.41;54.87
6389;BME280;3227;42.654;23.360;2022-09-12T08:47:42;94308.28;;;21.35;54.18
6389;BME280;3227;42.654;23.360;2022-09-12T08:50:16;94308.44;;;21.32;54.38
6389;BME280;3227;42.654;23.360;2022-09-12T08:52:51;94308.50;;;21.31;54.82
6389;BME280;3227;42.654;23.360;2022-09-12T08:55:30;94311.53;;;21.40;54.48
6389;BME280;3227;42.654;23.360;2022-09-12T08:57:59;94301.97;;;21.41;54.04
6389;BME280;3227;42.654;23.360;2022-09-12T09:00:34;94300.41;;;21.55;54.59
6389;BME280;3227;42.654;23.360;2022-09-12T09:03:24;94303.28;;;21.68;53.94
6389;BME280;3227;42.654;23.360;2022-09-12T09:05:59;94301.81;;;21.44;53.42
6389;BME280;3227;42.654;23.360;2022-09-12T09:08:36;94290.97;;;21.53;54.21
6389;BME280;3227;42.654;23.360;2022-09-12T09:11:17;94289.97;;;21.55;53.41
6389;BME280;3227;42.654;23.360;2022-09-12T09:13:57;94302.59;;;21.46;53.19
6389;BME280;3227;42.654;23.360;2022-09-12T09:16:51;94288.28;;;21.54;51.53
6389;BME280;3227;42.654;23.360;2022-09-12T09:19:23;94296.88;;;21.56;50.22
6389;BME280;3227;42.654;23.360;2022-09-12T09:21:56;94296.66;;;21.61;51.15
6389;BME280;3227;42.654;23.360;2022-09-12T09:24:32;94296.22;;;21.70;51.66
6389;BME280;3227;42.654;23.360;2022-09-12T09:27:02;94299.25;;;21.80;52.21
6389;BME280;3227;42.654;23.360;2022-09-12T09:29:36;94294.59;;;21.86;51.70
6389;BME280;3227;42.654;23.360;2022-09-12T09:32:13;94267.41;;;21.36;52.00
6389;BME280;3227;42.654;23.360;2022-09-12T09:34:43;94253.03;;;21.08;52.66
6389;BME280;3227;42.654;23.360;2022-09-12T09:37:15;94280.69;;;21.31;52.98
6389;BME280;3227;42.654;23.360;2022-09-12T09:39:51;94279.28;;;21.24;53.27
6389;BME280;3227;42.654;23.360;2022-09-12T09:42:31;94284.13;;;21.11;53.41
6389;BME280;3227;42.654;23.360;2022-09-12T09:45:12;94268.78;;;21.05;53.12
6389;BME280;3227;42.654;23.360;2022-09-12T09:47:40;94273.28;;;21.02;53.51
6389;BME280;3227;42.654;23.360;2022-09-12T09:50:13;94276.53;;;21.07;54.30
6389;BME280;3227;42.654;23.360;2022-09-12T09:52:41;94281.03;;;21.03;53.58
6389;BME280;3227;42.654;23.360;2022-09-12T09:55:12;94273.16;;;21.05;53.05
6389;BME280;3227;42.654;23.360;2022-09-12T09:57:44;94273.28;;;21.02;53.16
6389;BME280;3227;42.654;23.360;2022-09-12T10:00:28;94255.03;;;20.83;53.52
6389;BME280;3227;42.654;23.360;2022-09-12T10:03:05;94267.72;;;20.70;55.23
6389;BME280;3227;42.654;23.360;2022-09-12T10:05:34;94263.88;;;20.79;55.22
6389;BME280;3227;42.654;23.360;2022-09-12T10:08:03;94263.69;;;21.02;54.53
6389;BME280;3227;42.654;23.360;2022-09-12T10:10:32;94254.44;;;21.15;53.57
6389;BME280;3227;42.654;23.360;2022-09-12T10:13:06;94262.88;;;21.41;52.82
6389;BME280;3227;42.654;23.360;2022-09-12T10:15:35;94259.66;;;21.53;52.34
6389;BME280;3227;42.654;23.360;2022-09-12T10:18:02;94260.59;;;21.52;52.54
6389;BME280;3227;42.654;23.360;2022-09-12T10:20:31;94251.00;;;21.52;52.21
6389;BME280;3227;42.654;23.360;2022-09-12T10:23:00;94261.38;;;21.54;51.80
6389;BME280;3227;42.654;23.360;2022-09-12T10:25:27;94245.09;;;21.49;51.01
6389;BME280;3227;42.654;23.360;2022-09-12T10:27:56;94259.13;;;21.46;50.84
6389;BME280;3227;42.654;23.360;2022-09-12T10:30:25;94263.06;;;21.55;51.46
6389;BME280;3227;42.654;23.360;2022-09-12T10:32:57;94226.28;;;21.42;51.62
6389;BME280;3227;42.654;23.360;2022-09-12T10:35:28;94253.16;;;21.80;51.95
6389;BME280;3227;42.654;23.360;2022-09-12T10:38:00;94262.75;;;21.98;51.94
6389;BME280;3227;42.654;23.360;2022-09-12T10:40:29;94257.44;;;22.00;51.51
6389;BME280;3227;42.654;23.360;2022-09-12T10:42:59;94255.59;;;22.02;51.19
6389;BME280;3227;42.654;23.360;2022-09-12T10:45:28;94261.38;;;22.09;51.93
6389;BME280;3227;42.654;23.360;2022-09-12T10:47:58;94236.34;;;22.05;50.13
6389;BME280;3227;42.654;23.360;2022-09-12T10:50:29;94257.75;;;22.11;50.58
6389;BME280;3227;42.654;23.360;2022-09-12T10:53:13;94253.41;;;22.12;47.78
6389;BME280;3227;42.654;23.360;2022-09-12T10:56:06;94249.88;;;22.13;48.70
6389;BME280;3227;42.654;23.360;2022-09-12T10:58:50;94244.03;;;22.25;47.51
6389;BME280;3227;42.654;23.360;2022-09-12T11:01:34;94257.31;;;22.20;47.19
6389;BME280;3227;42.654;23.360;2022-09-12T11:04:17;94259.47;;;22.12;46.81
6389;BME280;3227;42.654;23.360;2022-09-12T11:06:58;94256.00;;;22.12;47.00
6389;BME280;3227;42.654;23.360;2022-09-12T11:09:34;94261.16;;;22.13;47.84
6389;BME280;3227;42.654;23.360;2022-09-12T11:12:11;94256.16;;;22.26;48.56
6389;BME280;3227;42.654;23.360;2022-09-12T11:14:55;94255.09;;;22.30;48.13
6389;BME280;3227;42.654;23.360;2022-09-12T11:17:39;94259.41;;;22.31;47.89
6389;BME280;3227;42.654;23.360;2022-09-12T11:23:31;94261.28;;;22.10;47.44
6389;BME280;3227;42.654;23.360;2022-09-12T11:26:11;94231.28;;;22.01;47.49
6389;BME280;3227;42.654;23.360;2022-09-12T11:28:48;94246.34;;;22.14;47.77
6389;BME280;3227;42.654;23.360;2022-09-12T11:34:10;94233.50;;;22.09;47.22
6389;BME280;3227;42.654;23.360;2022-09-12T11:36:47;94256.41;;;22.21;47.50
6389;BME280;3227;42.654;23.360;2022-09-12T11:39:21;94253.78;;;22.21;47.18
6389;BME280;3227;42.654;23.360;2022-09-12T11:41:50;94262.09;;;22.29;46.39
6389;BME280;3227;42.654;23.360;2022-09-12T11:44:24;94259.31;;;22.15;47.62
6389;BME280;3227;42.654;23.360;2022-09-12T11:46:52;94253.53;;;22.09;48.00
6389;BME280;3227;42.654;23.360;2022-09-12T11:49:25;94255.69;;;22.18;48.48
6389;BME280;3227;42.654;23.360;2022-09-12T11:51:59;94253.53;;;22.09;49.05
6389;BME280;3227;42.654;23.360;2022-09-12T11:54:32;94256.78;;;21.95;49.07
6389;BME280;3227;42.654;23.360;2022-09-12T11:57:15;94240.22;;;21.60;49.75
6389;BME280;3227;42.654;23.360;2022-09-12T11:59:47;94260.34;;;21.75;49.92
6389;BME280;3227;42.654;23.360;2022-09-12T12:02:21;94273.78;;;21.85;50.46
6389;BME280;3227;42.654;23.360;2022-09-12T12:05:15;94264.00;;;21.90;50.87
6389;BME280;3227;42.654;23.360;2022-09-12T12:07:51;94265.19;;;21.83;51.13
6389;BME280;3227;42.654;23.360;2022-09-12T12:10:24;94262.59;;;21.83;51.65
6389;BME280;3227;42.654;23.360;2022-09-12T12:12:54;94257.66;;;21.77;50.33
6389;BME280;3227;42.654;23.360;2022-09-12T12:15:23;94248.94;;;21.78;49.70
6389;BME280;3227;42.654;23.360;2022-09-12T12:18:06;94249.53;;;21.83;50.02
6389;BME280;3227;42.654;23.360;2022-09-12T12:20:34;94254.16;;;21.78;48.77
6389;BME280;3227;42.654;23.360;2022-09-12T12:23:03;94252.16;;;21.83;48.82
6389;BME280;3227;42.654;23.360;2022-09-12T12:25:39;94200.53;;;21.72;48.85
6389;BME280;3227;42.654;23.360;2022-09-12T12:28:07;94243.19;;;22.07;48.76
6389;BME280;3227;42.654;23.360;2022-09-12T12:30:58;94232.53;;;22.12;48.72
6389;BME280;3227;42.654;23.360;2022-09-12T12:33:57;94235.06;;;22.13;48.98
6389;BME280;3227;42.654;23.360;2022-09-12T12:36:43;94236.78;;;21.95;49.49
6389;BME280;3227;42.654;23.360;2022-09-12T12:43:03;94240.50;;;21.73;48.94
6389;BME280;3227;42.654;23.360;2022-09-12T12:48:57;94247.03;;;21.81;48.60
6389;BME280;3227;42.654;23.360;2022-09-12T12:57:47;94239.75;;;21.88;49.69
6389;BME280;3227;42.654;23.360;2022-09-12T13:00:31;94241.03;;;21.98;50.35
6389;BME280;3227;42.654;23.360;2022-09-12T13:03:01;94249.72;;;21.98;49.91
6389;BME280;3227;42.654;23.360;2022-09-12T13:05:38;94202.72;;;21.62;49.61
6389;BME280;3227;42.654;23.360;2022-09-12T13:08:07;94249.28;;;21.89;49.36
6389;BME280;3227;42.654;23.360;2022-09-12T13:10:36;94245.94;;;21.85;49.54
6389;BME280;3227;42.654;23.360;2022-09-12T13:13:06;94220.00;;;21.65;49.76
6389;BME280;3227;42.654;23.360;2022-09-12T13:15:51;94246.19;;;21.81;50.23
6389;BME280;3227;42.654;23.360;2022-09-12T13:18:23;94245.63;;;21.74;50.37
6389;BME280;3227;42.654;23.360;2022-09-12T13:20:56;94247.53;;;21.71;50.28
6389;BME280;3227;42.654;23.360;2022-09-12T13:23:27;94247.16;;;21.78;50.47
6389;BME280;3227;42.654;23.360;2022-09-12T13:25:56;94204.84;;;21.54;50.21
6389;BME280;3227;42.654;23.360;2022-09-12T13:28:24;94230.59;;;21.79;50.21
6389;BME280;3227;42.654;23.360;2022-09-12T13:30:58;94240.31;;;21.76;50.83
6389;BME280;3227;42.654;23.360;2022-09-12T13:33:33;94237.09;;;21.71;50.74
6389;BME280;3227;42.654;23.360;2022-09-12T13:36:32;94237.78;;;21.57;49.08
6389;BME280;3227;42.654;23.360;2022-09-12T13:39:13;94235.16;;;21.57;49.07
6389;BME280;3227;42.654;23.360;2022-09-12T13:44:57;94245.78;;;21.52;48.46
6389;BME280;3227;42.654;23.360;2022-09-12T13:47:30;94236.78;;;21.41;51.05
6389;BME280;3227;42.654;23.360;2022-09-12T13:49:58;94196.97;;;21.18;50.02
6389;BME280;3227;42.654;23.360;2022-09-12T13:52:29;94238.31;;;21.45;50.75
6389;BME280;3227;42.654;23.360;2022-09-12T13:54:58;94201.34;;;20.99;51.52
6389;BME280;3227;42.654;23.360;2022-09-12T13:57:31;94242.28;;;21.35;52.04
6389;BME280;3227;42.654;23.360;2022-09-12T13:59:59;94241.22;;;21.39;51.10